sensor_id;sensor_type;location;lat;lon;timestamp;pressure;altitude;pressure_sealevel;temperature;humidity
41945;BME280;63122;52.424;13.458;2022-10-22T00:35:36;100348.69;;;15.92;81.83
41945;BME280;63122;52.424;13.458;2022-10-22T00:38:35;100339.59;;;15.87;81.67
41945;BME280;63122;52.424;13.458;2022-10-22T00:41:08;100331.16;;;16.05;81.08
41945;BME280;63122;52.424;13.458;2022-10-22T00:43:59;100323.22;;;16.18;80.17
41945;BME280;63122;52.424;13.458;2022-10-22T00:46:37;100324.66;;;16.14;80.25
41945;BME280;63122;52.424;13.458;2022-10-22T00:49:43;100339.84;;;16.20;79.72
41945;BME280;63122;52.424;13.458;2022-10-22T00:52:23;100339.84;;;16.20;79.12
41945;BME280;63122;52.424;13.458;2022-10-22T00:55:04;100346.75;;;16.15;79.72
41945;BME280;63122;52.424;13.458;2022-10-22T00:57:54;100362.69;;;16.08;79.83
41945;BME280;63122;52.424;13.458;2022-10-22T01:00:38;100361.38;;;15.97;80.51
41945;BME280;63122;52.424;13.458;2022-10-22T01:03:27;100363.38;;;15.88;80.37
41945;BME280;63122;52.424;13.458;2022-10-22T01:06:21;100371.72;;;15.85;80.50
41945;BME280;63122;52.424;13.458;2022-10-22T01:09:55;100368.22;;;15.56;82.79
41945;BME280;63122;52.424;13.458;2022-10-22T01:12:45;100363.50;;;15.30;84.54
41945;BME280;63122;52.424;13.458;2022-10-22T01:15:44;100368.53;;;15.03;86.31
41945;BME280;63122;52.424;13.458;2022-10-22T01:37:34;100338.81;;;15.14;86.31
41945;BME280;63122;52.424;13.458;2022-10-22T01:50:28;100339.47;;;15.66;82.38
41945;BME280;63122;52.424;13.458;2022-10-22T01:54:22;100353.47;;;15.82;80.98
41945;BME280;63122;52.424;13.458;2022-10-22T01:57:16;100361.06;;;15.85;80.09
41945;BME280;63122;52.424;13.458;2022-10-22T02:00:05;100359.63;;;15.82;80.74
41945;BME280;63122;52.424;13.458;2022-10-22T02:04:09;100354.94;;;15.84;79.99
41945;BME280;63122;52.424;13.458;2022-10-22T02:28:31;100350.59;;;15.05;83.75
41945;BME280;63122;52.424;13.458;2022-10-22T02:32:31;100344.50;;;15.33;82.68
41945;BME280;63122;52.424;13.458;2022-10-22T02:36:00;100350.00;;;15.53;81.59
41945;BME280;63122;52.424;13.458;2022-10-22T03:16:44;100346.19;;;16.19;77.33
41945;BME280;63122;52.424;13.458;2022-10-22T03:19:23;100346.69;;;16.36;75.70
41945;BME280;63122;52.424;13.458;2022-10-22T03:22:17;100341.97;;;16.38;75.25
41945;BME280;63122;52.424;13.458;2022-10-22T03:25:09;100342.81;;;16.46;74.99
41945;BME280;63122;52.424;13.458;2022-10-22T03:28:58;100346.19;;;16.26;75.77
41945;BME280;63122;52.424;13.458;2022-10-22T03:36:21;100359.78;;;16.03;76.29
41945;BME280;63122;52.424;13.458;2022-10-22T03:39:39;100352.38;;;15.98;76.77
41945;BME280;63122;52.424;13.458;2022-10-22T03:42:59;100343.91;;;16.16;76.21
41945;BME280;63122;52.424;13.458;2022-10-22T03:46:20;100351.34;;;16.27;75.12
41945;BME280;63122;52.424;13.458;2022-10-22T03:49:40;100356.97;;;16.11;75.69
41945;BME280;63122;52.424;13.458;2022-10-22T03:52:51;100350.00;;;16.10;75.84
41945;BME280;63122;52.424;13.458;2022-10-22T03:55:57;100347.63;;;16.22;74.90
41945;BME280;63122;52.424;13.458;2022-10-22T03:59:08;100360.06;;;16.15;75.24
41945;BME280;63122;52.424;13.458;2022-10-22T04:02:18;100362.63;;;16.01;76.26
41945;BME280;63122;52.424;13.458;2022-10-22T04:05:01;100369.53;;;15.89;76.73
41945;BME280;63122;52.424;13.458;2022-10-22T04:07:42;100376.94;;;16.00;75.99
41945;BME280;63122;52.424;13.458;2022-10-22T04:10:31;100375.59;;;15.82;76.70
41945;BME280;63122;52.424;13.458;2022-10-22T04:17:36;100393.28;;;15.47;77.88
41945;BME280;63122;52.424;13.458;2022-10-22T04:21:50;100393.66;;;15.22;79.29
41945;BME280;63122;52.424;13.458;2022-10-22T04:24:57;100402.59;;;15.36;78.82
41945;BME280;63122;52.424;13.458;2022-10-22T04:27:48;100398.69;;;15.32;79.26
41945;BME280;63122;52.424;13.458;2022-10-22T04:30:41;100402.59;;;15.36;78.91
41945;BME280;63122;52.424;13.458;2022-10-22T04:33:53;100389.44;;;15.28;79.90
41945;BME280;63122;52.424;13.458;2022-10-22T04:36:57;100386.31;;;15.24;79.64
41945;BME280;63122;52.424;13.458;2022-10-22T04:39:56;100387.22;;;15.53;78.11
41945;BME280;63122;52.424;13.458;2022-10-22T04:43:38;100384.97;;;15.78;77.02
41945;BME280;63122;52.424;13.458;2022-10-22T04:57:23;100395.22;;;15.81;76.23
41945;BME280;63122;52.424;13.458;2022-10-22T05:05:23;100385.06;;;15.42;78.28
41945;BME280;63122;52.424;13.458;2022-10-22T05:22:14;100394.94;;;15.48;78.36
41945;BME280;63122;52.424;13.458;2022-10-22T05:34:21;100399.31;;;15.55;76.77
41945;BME280;63122;52.424;13.458;2022-10-22T05:37:48;100394.63;;;15.58;77.08
41945;BME280;63122;52.424;13.458;2022-10-22T05:45:08;100394.53;;;15.73;75.82
41945;BME280;63122;52.424;13.458;2022-10-22T08:24:24;100545.88;;;15.16;81.70
41945;BME280;63122;52.424;13.458;2022-10-22T08:35:10;100549.03;;;15.41;80.57
41945;BME280;63122;52.424;13.458;2022-10-22T08:38:59;100561.22;;;15.50;79.93
41945;BME280;63122;52.424;13.458;2022-10-22T08:58:42;100572.03;;;15.34;82.51
41945;BME280;63122;52.424;13.458;2022-10-22T09:02:29;100572.78;;;15.28;83.17
41945;BME280;63122;52.424;13.458;2022-10-22T09:06:16;100585.34;;;15.19;83.35
41945;BME280;63122;52.424;13.458;2022-10-22T09:26:41;100596.78;;;15.04;86.70
41945;BME280;63122;52.424;13.458;2022-10-22T09:29:52;100591.75;;;15.24;85.44
41945;BME280;63122;52.424;13.458;2022-10-22T09:33:52;100602.72;;;15.21;86.25
41945;BME280;63122;52.424;13.458;2022-10-22T09:37:36;100602.09;;;15.19;86.50
41945;BME280;63122;52.424;13.458;2022-10-22T09:40:51;100603.47;;;15.30;85.27
41945;BME280;63122;52.424;13.458;2022-10-22T09:52:27;100616.66;;;15.53;84.93
41945;BME280;63122;52.424;13.458;2022-10-22T09:55:24;100613.38;;;15.51;85.16
41945;BME280;63122;52.424;13.458;2022-10-22T09:58:02;100613.50;;;15.65;85.23
41945;BME280;63122;52.424;13.458;2022-10-22T10:01:24;100613.22;;;15.75;84.14
41945;BME280;63122;52.424;13.458;2022-10-22T10:12:15;100621.16;;;16.48;80.89
41945;BME280;63122;52.424;13.458;2022-10-22T10:15:58;100621.22;;;16.33;80.52
41945;BME280;63122;52.424;13.458;2022-10-22T10:18:42;100614.56;;;16.22;81.64
41945;BME280;63122;52.424;13.458;2022-10-22T14:27:02;100661.09;;;22.66;49.45
41945;BME280;63122;52.424;13.458;2022-10-22T14:29:53;100658.97;;;22.56;49.27
41945;BME280;63122;52.424;13.458;2022-10-22T14:32:50;100655.41;;;22.43;49.66
41945;BME280;63122;52.424;13.458;2022-10-22T14:47:43;100669.25;;;22.47;49.65
41945;BME280;63122;52.424;13.458;2022-10-22T14:57:33;100677.69;;;22.63;48.45
41945;BME280;63122;52.424;13.458;2022-10-22T17:07:42;100762.75;;;21.52;52.45
41945;BME280;63122;52.424;13.458;2022-10-22T18:07:13;100813.94;;;18.47;65.70
41945;BME280;63122;52.424;13.458;2022-10-22T18:10:14;100811.31;;;18.53;65.79
41945;BME280;63122;52.424;13.458;2022-10-22T18:13:51;100805.00;;;18.81;64.91
41945;BME280;63122;52.424;13.458;2022-10-22T18:17:43;100809.38;;;19.09;63.74
41945;BME280;63122;52.424;13.458;2022-10-22T18:23:56;100823.78;;;19.62;61.33
41945;BME280;63122;52.424;13.458;2022-10-22T18:26:58;100819.03;;;19.04;63.00
41945;BME280;63122;52.424;13.458;2022-10-22T18:30:28;100816.16;;;19.12;63.03
41945;BME280;63122;52.424;13.458;2022-10-22T18:34:26;100825.34;;;18.82;63.81
41945;BME280;63122;52.424;13.458;2022-10-22T18:37:37;100818.56;;;18.73;64.33
41945;BME280;63122;52.424;13.458;2022-10-22T18:40:25;100822.19;;;18.52;65.35
41945;BME280;63122;52.424;13.458;2022-10-22T18:43:30;100818.47;;;18.53;65.46
41945;BME280;63122;52.424;13.458;2022-10-22T18:46:28;100830.28;;;18.72;64.61
41945;BME280;63122;52.424;13.458;2022-10-22T18:49:26;100819.56;;;18.65;64.32
41945;BME280;63122;52.424;13.458;2022-10-22T18:52:39;100828.41;;;18.73;63.59
41945;BME280;63122;52.424;13.458;2022-10-22T18:59:55;100821.81;;;18.62;63.79
41945;BME280;63122;52.424;13.458;2022-10-22T21:33:52;100953.03;;;16.41;74.25
41945;BME280;63122;52.424;13.458;2022-10-22T21:37:28;100956.91;;;16.38;74.50
41945;BME280;63122;52.424;13.458;2022-10-22T21:58:19;100974.53;;;16.01;76.31
41945;BME280;63122;52.424;13.458;2022-10-22T22:02:35;100969.00;;;16.26;75.04
41945;BME280;63122;52.424;13.458;2022-10-22T22:10:24;100959.84;;;16.29;74.07
41945;BME280;63122;52.424;13.458;2022-10-22T22:14:51;100957.97;;;16.29;73.91
41945;BME280;63122;52.424;13.458;2022-10-22T23:16:16;100950.84;;;15.68;74.48
41945;BME280;63122;52.424;13.458;2022-10-22T23:19:40;100958.47;;;15.71;74.39
41945;BME280;63122;52.424;13.458;2022-10-22T23:23:12;100958.13;;;15.74;73.88
41945;BME280;63122;52.424;13.458;2022-10-22T23:26:24;100971.59;;;15.96;73.08
41945;BME280;63122;52.424;13.458;2022-10-22T23:30:17;100965.56;;;15.79;73.31
41945;BME280;63122;52.424;13.458;2022-10-22T23:37:46;100968.88;;;15.81;73.53
